Time,TemperatureF,DewpointF,PressureIn,WindDirection,WindDirectionDegrees,WindSpeedMPH,WindSpeedGustMPH,Humidity,HourlyPrecipIn,Conditions,Clouds,dailyrainin,SoftwareType,DateUTC
2013-01-08 00:04:00,24.0,21.0,30.35,WNW,294,0.0,0.0,88,0.00,,,0.01,,2013-01-08 05:04:00,
2013-01-08 00:12:00,24.0,21.0,30.35,WNW,294,0.0,0.0,88,0.00,,,0.01,,2013-01-08 05:12:00,
2013-01-08 00:22:00,23.0,20.0,30.35,WNW,294,0.0,0.0,88,0.00,,,0.01,,2013-01-08 05:22:00,
2013-01-08 00:33:00,23.0,20.0,30.35,WNW,294,0.0,0.0,88,0.00,,,0.01,,2013-01-08 05:33:00,
2013-01-08 00:43:00,23.0,20.0,30.35,WNW,294,0.0,0.0,88,0.00,,,0.01,,2013-01-08 05:43:00,
2013-01-08 00:53:00,23.0,20.0,30.35,WNW,294,0.0,0.0,88,0.00,,,0.01,,2013-01-08 05:53:00,
2013-01-08 01:02:00,23.0,20.0,30.35,WNW,294,0.0,0.0,88,0.00,,,0.01,,2013-01-08 06:02:00,
2013-01-08 01:12:00,23.0,20.0,30.35,WNW,294,0.0,0.0,88,0.00,,,0.01,,2013-01-08 06:12:00,
2013-01-08 01:22:00,22.0,19.0,30.33,WNW,294,0.0,0.0,89,0.00,,,0.01,,2013-01-08 06:22:00,
2013-01-08 01:33:00,22.0,19.0,30.33,WNW,294,0.0,0.0,89,0.00,,,0.01,,2013-01-08 06:33:00,
2013-01-08 01:43:00,22.0,19.0,30.33,WNW,294,0.0,0.0,89,0.00,,,0.01,,2013-01-08 06:43:00,
2013-01-08 01:53:00,22.0,19.0,30.32,WNW,294,0.0,0.0,89,0.00,,,0.01,,2013-01-08 06:53:00,
2013-01-08 02:02:00,22.0,19.0,30.32,WNW,294,0.0,0.0,89,0.00,,,0.01,,2013-01-08 07:02:00,
2013-01-08 02:12:00,22.0,19.0,30.32,WNW,294,0.0,0.0,89,0.00,,,0.01,,2013-01-08 07:12:00,
2013-01-08 02:22:00,22.0,20.0,30.33,WNW,294,0.0,0.0,90,0.00,,,0.01,,2013-01-08 07:22:00,
2013-01-08 02:32:00,22.0,20.0,30.33,WNW,294,0.0,0.0,90,0.00,,,0.01,,2013-01-08 07:32:00,
2013-01-08 02:42:00,22.0,20.0,30.33,WNW,294,0.0,0.0,90,0.00,,,0.01,,2013-01-08 07:42:00,
2013-01-08 02:52:00,22.0,20.0,30.33,WNW,294,0.0,0.0,90,0.00,,,0.01,,2013-01-08 07:52:00,
2013-01-08 03:02:00,22.0,20.0,30.33,WNW,294,0.0,0.0,90,0.00,,,0.01,,2013-01-08 08:02:00,
2013-01-08 03:12:00,22.0,20.0,30.33,WNW,294,0.0,0.0,90,0.00,,,0.01,,2013-01-08 08:12:00,
2013-01-08 03:22:00,21.0,19.0,30.32,WNW,294,0.0,0.0,90,0.00,,,0.01,,2013-01-08 08:22:00,
2013-01-08 03:32:00,21.0,19.0,30.32,WNW,294,0.0,0.0,90,0.00,,,0.01,,2013-01-08 08:32:00,
2013-01-08 03:42:00,21.0,19.0,30.32,WNW,294,0.0,0.0,90,0.00,,,0.01,,2013-01-08 08:42:00,
2013-01-08 03:53:00,22.0,20.0,30.32,WNW,294,0.0,0.0,91,0.00,,,0.01,,2013-01-08 08:53:00,
2013-01-08 04:02:00,22.0,20.0,30.32,WNW,294,0.0,0.0,91,0.00,,,0.01,,2013-01-08 09:02:00,
2013-01-08 04:12:00,22.0,20.0,30.32,WNW,294,0.0,0.0,91,0.00,,,0.01,,2013-01-08 09:12:00,
2013-01-08 04:22:00,23.0,21.0,30.31,WNW,294,0.0,4.0,92,0.00,,,0.01,,2013-01-08 09:22:00,
2013-01-08 04:32:00,23.0,21.0,30.31,WNW,294,0.0,4.0,92,0.00,,,0.01,,2013-01-08 09:32:00,
2013-01-08 04:42:00,23.0,21.0,30.31,WNW,294,0.0,4.0,92,0.00,,,0.01,,2013-01-08 09:42:00,
2013-01-08 04:52:00,25.0,23.0,30.32,WNW,294,0.0,4.0,92,0.00,,,0.01,,2013-01-08 09:52:00,
2013-01-08 05:02:00,25.0,23.0,30.32,WNW,294,0.0,4.0,92,0.00,,,0.01,,2013-01-08 10:02:00,
2013-01-08 05:12:00,25.0,23.0,30.32,WNW,294,0.0,4.0,92,0.00,,,0.01,,2013-01-08 10:12:00,
2013-01-08 05:22:00,25.0,23.0,30.31,WNW,294,0.0,1.0,91,0.00,,,0.01,,2013-01-08 10:22:00,
2013-01-08 05:32:00,25.0,23.0,30.31,WNW,294,0.0,1.0,91,0.00,,,0.01,,2013-01-08 10:32:00,
2013-01-08 05:43:00,25.0,23.0,30.31,WNW,294,0.0,1.0,91,0.00,,,0.01,,2013-01-08 10:43:00,
2013-01-08 05:53:00,25.0,23.0,30.31,WNW,294,0.0,2.0,92,0.00,,,0.01,,2013-01-08 10:53:00,
2013-01-08 06:02:00,25.0,23.0,30.31,WNW,294,0.0,2.0,92,0.00,,,0.01,,2013-01-08 11:02:00,
2013-01-08 06:12:00,25.0,23.0,30.31,WNW,294,0.0,2.0,92,0.00,,,0.01,,2013-01-08 11:12:00,
2013-01-08 06:22:00,26.0,24.0,30.31,WNW,294,2.0,5.0,92,0.00,,,0.01,,2013-01-08 11:22:00,
2013-01-08 06:33:00,26.0,24.0,30.31,WNW,294,2.0,5.0,92,0.00,,,0.01,,2013-01-08 11:33:00,
2013-01-08 06:43:00,26.0,24.0,30.31,WNW,294,2.0,5.0,92,0.00,,,0.01,,2013-01-08 11:43:00,
2013-01-08 06:53:00,27.0,25.0,30.32,WSW,256,1.0,5.0,91,0.00,,,0.01,,2013-01-08 11:53:00,
2013-01-08 07:03:00,27.0,25.0,30.32,WSW,256,1.0,5.0,91,0.00,,,0.01,,2013-01-08 12:03:00,
2013-01-08 07:12:00,27.0,25.0,30.32,WSW,256,1.0,5.0,91,0.00,,,0.01,,2013-01-08 12:12:00,
2013-01-08 07:22:00,28.0,25.0,30.34,SSW,205,2.0,8.0,89,0.00,,,0.01,,2013-01-08 12:22:00,
2013-01-08 07:33:00,28.0,25.0,30.34,SSW,205,2.0,8.0,89,0.00,,,0.01,,2013-01-08 12:33:00,
2013-01-08 07:43:00,28.0,25.0,30.34,SSW,205,2.0,8.0,89,0.00,,,0.01,,2013-01-08 12:43:00,
2013-01-08 07:53:00,28.0,25.0,30.35,SSW,208,0.0,4.0,88,0.00,,,0.01,,2013-01-08 12:53:00,
2013-01-08 08:03:00,28.0,25.0,30.35,SSW,208,0.0,4.0,88,0.00,,,0.01,,2013-01-08 13:03:00,
2013-01-08 08:13:00,28.0,25.0,30.35,SSW,208,0.0,4.0,88,0.00,,,0.01,,2013-01-08 13:13:00,
2013-01-08 08:22:00,28.0,25.0,30.35,SSW,208,0.0,4.0,88,0.00,,,0.01,,2013-01-08 13:22:00,
2013-01-08 08:33:00,28.0,25.0,30.35,SSW,208,0.0,4.0,88,0.00,,,0.01,,2013-01-08 13:33:00,
2013-01-08 08:43:00,28.0,25.0,30.35,SSW,208,0.0,4.0,88,0.00,,,0.01,,2013-01-08 13:43:00,
2013-01-08 08:53:00,29.0,26.0,30.35,SSW,202,1.0,5.0,89,0.00,,,0.01,,2013-01-08 13:53:00,
2013-01-08 09:02:00,29.0,26.0,30.35,SSW,202,1.0,5.0,89,0.00,,,0.01,,2013-01-08 14:02:00,
2013-01-08 09:13:00,29.0,26.0,30.35,SSW,202,1.0,5.0,89,0.00,,,0.01,,2013-01-08 14:13:00,
2013-01-08 09:23:00,33.0,30.0,30.35,South,186,1.0,3.0,88,0.00,,,0.01,,2013-01-08 14:23:00,
2013-01-08 09:33:00,33.0,30.0,30.35,South,186,1.0,3.0,88,0.00,,,0.01,,2013-01-08 14:33:00,
2013-01-08 09:43:00,33.0,30.0,30.35,South,186,1.0,3.0,88,0.00,,,0.01,,2013-01-08 14:43:00,
2013-01-08 09:53:00,35.0,30.0,30.35,SW,222,4.0,7.0,83,0.00,,,0.01,,2013-01-08 14:53:00,
2013-01-08 10:03:00,35.0,30.0,30.35,SW,222,4.0,7.0,83,0.00,,,0.01,,2013-01-08 15:03:00,
2013-01-08 10:12:00,35.0,30.0,30.35,SW,222,4.0,7.0,83,0.00,,,0.01,,2013-01-08 15:12:00,
2013-01-08 10:23:00,38.0,32.0,30.35,SSW,200,4.0,8.0,80,0.00,,,0.01,,2013-01-08 15:23:00,
2013-01-08 10:33:00,38.0,32.0,30.35,SSW,200,4.0,8.0,80,0.00,,,0.01,,2013-01-08 15:33:00,
2013-01-08 10:43:00,38.0,32.0,30.35,SSW,200,4.0,8.0,80,0.00,,,0.01,,2013-01-08 15:43:00,
2013-01-08 10:53:00,38.0,31.0,30.35,SSW,213,5.0,8.0,77,0.01,,,0.01,,2013-01-08 15:53:00,
2013-01-08 11:03:00,38.0,31.0,30.35,SSW,213,5.0,8.0,77,0.01,,,0.01,,2013-01-08 16:03:00,
2013-01-08 11:13:00,38.0,31.0,30.35,SSW,213,5.0,8.0,77,0.01,,,0.01,,2013-01-08 16:13:00,
2013-01-08 11:23:00,40.0,33.0,30.35,SSW,203,6.0,11.0,75,0.01,,,0.01,,2013-01-08 16:23:00,
2013-01-08 11:34:00,40.0,33.0,30.35,SSW,203,6.0,11.0,75,0.01,,,0.01,,2013-01-08 16:34:00,
2013-01-08 11:43:00,40.0,33.0,30.35,SSW,203,6.0,11.0,75,0.01,,,0.01,,2013-01-08 16:43:00,
2013-01-08 11:53:00,41.0,33.0,30.34,SW,223,1.0,5.0,74,0.00,,,0.01,,2013-01-08 16:53:00,
2013-01-08 12:03:00,41.0,33.0,30.34,SW,223,1.0,5.0,74,0.00,,,0.01,,2013-01-08 17:03:00,
2013-01-08 12:13:00,41.0,33.0,30.34,SW,223,1.0,5.0,74,0.00,,,0.01,,2013-01-08 17:13:00,
2013-01-08 12:23:00,44.0,34.0,30.33,SSW,210,2.0,5.0,68,0.00,,,0.01,,2013-01-08 17:23:00,
2013-01-08 12:34:00,44.0,34.0,30.33,SSW,210,2.0,5.0,68,0.00,,,0.01,,2013-01-08 17:34:00,
2013-01-08 12:43:00,44.0,34.0,30.33,SSW,210,2.0,5.0,68,0.00,,,0.01,,2013-01-08 17:43:00,
2013-01-08 12:54:00,46.0,35.0,30.32,SW,221,3.0,6.0,65,0.00,,,0.01,,2013-01-08 17:54:00,
2013-01-08 13:04:00,46.0,35.0,30.32,SW,221,3.0,6.0,65,0.00,,,0.01,,2013-01-08 18:04:00,
2013-01-08 13:13:00,46.0,35.0,30.32,SW,221,3.0,6.0,65,0.00,,,0.01,,2013-01-08 18:13:00,
2013-01-08 13:23:00,47.0,35.0,30.31,SW,216,3.0,7.0,63,0.00,,,0.01,,2013-01-08 18:23:00,
2013-01-08 13:33:00,47.0,35.0,30.31,SW,216,3.0,7.0,63,0.00,,,0.01,,2013-01-08 18:33:00,
2013-01-08 13:43:00,47.0,35.0,30.31,SW,216,3.0,7.0,63,0.00,,,0.01,,2013-01-08 18:43:00,
2013-01-08 13:53:00,48.0,36.0,30.30,SW,219,3.0,7.0,62,0.00,,,0.01,,2013-01-08 18:53:00,
2013-01-08 14:03:00,48.0,36.0,30.30,SW,219,3.0,7.0,62,0.00,,,0.01,,2013-01-08 19:03:00,
2013-01-08 14:12:00,48.0,36.0,30.30,SW,219,3.0,7.0,62,0.00,,,0.01,,2013-01-08 19:12:00,
2013-01-08 14:23:00,51.0,35.0,30.30,SW,222,1.0,5.0,55,0.00,,,0.01,,2013-01-08 19:23:00,
2013-01-08 14:33:00,51.0,35.0,30.30,SW,222,1.0,5.0,55,0.00,,,0.01,,2013-01-08 19:33:00,
2013-01-08 14:43:00,51.0,35.0,30.30,SW,222,1.0,5.0,55,0.00,,,0.01,,2013-01-08 19:43:00,
2013-01-08 14:53:00,52.0,34.0,30.31,WSW,242,1.0,6.0,51,0.00,,,0.01,,2013-01-08 19:53:00,
2013-01-08 15:03:00,52.0,34.0,30.31,WSW,242,1.0,6.0,51,0.00,,,0.01,,2013-01-08 20:03:00,
2013-01-08 15:12:00,52.0,34.0,30.31,WSW,242,1.0,6.0,51,0.00,,,0.01,,2013-01-08 20:12:00,
2013-01-08 15:23:00,51.0,34.0,30.31,West,267,1.0,4.0,53,0.00,,,0.01,,2013-01-08 20:23:00,
2013-01-08 15:33:00,51.0,34.0,30.31,West,267,1.0,4.0,53,0.00,,,0.01,,2013-01-08 20:33:00,
2013-01-08 15:43:00,51.0,34.0,30.31,West,267,1.0,4.0,53,0.00,,,0.01,,2013-01-08 20:43:00,
2013-01-08 15:54:00,51.0,34.0,30.32,SSE,168,2.0,5.0,53,0.00,,,0.01,,2013-01-08 20:54:00,
2013-01-08 16:03:00,51.0,34.0,30.32,SSE,168,2.0,5.0,53,0.00,,,0.01,,2013-01-08 21:03:00,
2013-01-08 16:13:00,51.0,34.0,30.32,SSE,168,2.0,5.0,53,0.00,,,0.01,,2013-01-08 21:13:00,
2013-01-08 16:23:00,51.0,34.0,30.32,SSE,168,0.0,4.0,53,0.01,,,0.02,,2013-01-08 21:23:00,
2013-01-08 16:33:00,51.0,34.0,30.32,SSE,168,0.0,4.0,53,0.01,,,0.02,,2013-01-08 21:33:00,
2013-01-08 16:43:00,51.0,34.0,30.32,SSE,168,0.0,4.0,53,0.01,,,0.02,,2013-01-08 21:43:00,
2013-01-08 16:53:00,50.0,34.0,30.32,SSE,168,0.0,0.0,53,0.01,,,0.02,,2013-01-08 21:53:00,
2013-01-08 17:03:00,50.0,34.0,30.32,SSE,168,0.0,0.0,53,0.01,,,0.02,,2013-01-08 22:03:00,
2013-01-08 17:12:00,50.0,34.0,30.32,SSE,168,0.0,0.0,53,0.01,,,0.02,,2013-01-08 22:12:00,
2013-01-08 17:23:00,48.0,33.0,30.32,SSE,168,0.0,0.0,56,0.00,,,0.02,,2013-01-08 22:23:00,
2013-01-08 17:33:00,48.0,33.0,30.32,SSE,168,0.0,0.0,56,0.00,,,0.02,,2013-01-08 22:33:00,
2013-01-08 17:43:00,48.0,33.0,30.32,SSE,168,0.0,0.0,56,0.00,,,0.02,,2013-01-08 22:43:00,
2013-01-08 17:53:00,44.0,31.0,30.32,SSE,168,0.0,0.0,61,0.00,,,0.02,,2013-01-08 22:53:00,
2013-01-08 18:03:00,44.0,31.0,30.32,SSE,168,0.0,0.0,61,0.00,,,0.02,,2013-01-08 23:03:00,
2013-01-08 18:13:00,44.0,31.0,30.32,SSE,168,0.0,0.0,61,0.00,,,0.02,,2013-01-08 23:13:00,
2013-01-08 18:22:00,41.0,31.0,30.32,SSE,168,0.0,0.0,68,0.00,,,0.02,,2013-01-08 23:22:00,
2013-01-08 18:33:00,41.0,31.0,30.32,SSE,168,0.0,0.0,68,0.00,,,0.02,,2013-01-08 23:33:00,
2013-01-08 18:43:00,41.0,31.0,30.32,SSE,168,0.0,0.0,68,0.00,,,0.02,,2013-01-08 23:43:00,
2013-01-08 18:53:00,38.0,29.0,30.33,SSE,168,0.0,0.0,71,0.00,,,0.02,,2013-01-08 23:53:00,
2013-01-08 19:03:00,38.0,29.0,30.33,SSE,168,0.0,0.0,71,0.00,,,0.02,,2013-01-09 00:03:00,
2013-01-08 19:13:00,38.0,29.0,30.33,SSE,168,0.0,0.0,71,0.00,,,0.02,,2013-01-09 00:13:00,
2013-01-08 19:22:00,36.0,29.0,30.33,SSE,167,0.0,0.0,75,0.00,,,0.02,,2013-01-09 00:22:00,
2013-01-08 19:33:00,36.0,29.0,30.33,SSE,167,0.0,0.0,75,0.00,,,0.02,,2013-01-09 00:33:00,
2013-01-08 19:43:00,36.0,29.0,30.33,SSE,167,0.0,0.0,75,0.00,,,0.02,,2013-01-09 00:43:00,
2013-01-08 19:53:00,34.0,28.0,30.34,SSE,167,1.0,2.0,78,0.00,,,0.02,,2013-01-09 00:53:00,
2013-01-08 20:02:00,34.0,28.0,30.34,SSE,167,1.0,2.0,78,0.00,,,0.02,,2013-01-09 01:02:00,
2013-01-08 20:12:00,34.0,28.0,30.34,SSE,167,1.0,2.0,78,0.00,,,0.02,,2013-01-09 01:12:00,
2013-01-08 20:22:00,33.0,28.0,30.32,SSE,168,0.0,0.0,80,0.00,,,0.02,,2013-01-09 01:22:00,
2013-01-08 20:33:00,33.0,28.0,30.32,SSE,168,0.0,0.0,80,0.00,,,0.02,,2013-01-09 01:33:00,
2013-01-08 20:43:00,33.0,28.0,30.32,SSE,168,0.0,0.0,80,0.00,,,0.02,,2013-01-09 01:43:00,
2013-01-08 20:53:00,32.0,27.0,30.32,SSE,168,0.0,0.0,82,0.00,,,0.02,,2013-01-09 01:53:00,
2013-01-08 21:02:00,32.0,27.0,30.32,SSE,168,0.0,0.0,82,0.00,,,0.02,,2013-01-09 02:02:00,
2013-01-08 21:12:00,32.0,27.0,30.32,SSE,168,0.0,0.0,82,0.00,,,0.02,,2013-01-09 02:12:00,
2013-01-08 21:22:00,30.0,26.0,30.34,SSE,167,0.0,1.0,84,0.00,,,0.02,,2013-01-09 02:22:00,
2013-01-08 21:33:00,30.0,26.0,30.34,SSE,167,0.0,1.0,84,0.00,,,0.02,,2013-01-09 02:33:00,
2013-01-08 21:43:00,30.0,26.0,30.34,SSE,167,0.0,1.0,84,0.00,,,0.02,,2013-01-09 02:43:00,
2013-01-08 21:53:00,29.0,25.0,30.35,SSE,167,0.0,0.0,85,0.00,,,0.02,,2013-01-09 02:53:00,
2013-01-08 22:03:00,29.0,25.0,30.35,SSE,167,0.0,0.0,85,0.00,,,0.02,,2013-01-09 03:03:00,
2013-01-08 22:12:00,29.0,25.0,30.35,SSE,167,0.0,0.0,85,0.00,,,0.02,,2013-01-09 03:12:00,
2013-01-08 22:22:00,29.0,25.0,30.34,SSE,168,0.0,0.0,86,0.00,,,0.02,,2013-01-09 03:22:00,
2013-01-08 22:33:00,29.0,25.0,30.34,SSE,168,0.0,0.0,86,0.00,,,0.02,,2013-01-09 03:33:00,
2013-01-08 22:43:00,29.0,25.0,30.34,SSE,168,0.0,0.0,86,0.00,,,0.02,,2013-01-09 03:43:00,
2013-01-08 22:53:00,28.0,25.0,30.33,SSE,168,0.0,0.0,87,0.00,,,0.02,,2013-01-09 03:53:00,
2013-01-08 23:02:00,28.0,25.0,30.33,SSE,168,0.0,0.0,87,0.00,,,0.02,,2013-01-09 04:02:00,
2013-01-08 23:12:00,28.0,25.0,30.33,SSE,168,0.0,0.0,87,0.00,,,0.02,,2013-01-09 04:12:00,
2013-01-08 23:22:00,28.0,25.0,30.33,SSE,168,0.0,0.0,87,0.00,,,0.02,,2013-01-09 04:22:00,
2013-01-08 23:33:00,28.0,25.0,30.33,SSE,168,0.0,0.0,87,0.00,,,0.02,,2013-01-09 04:33:00,
2013-01-08 23:43:00,28.0,25.0,30.33,SSE,168,0.0,0.0,87,0.00,,,0.02,,2013-01-09 04:43:00,
2013-01-08 23:52:00,27.0,24.0,30.33,SSE,168,0.0,0.0,88,0.00,,,0.02,,2013-01-09 04:52:00,